KGNR

Greenville Airport

Maine, USA
METAR KGNR 201956Z AUTO 00000KT 22/12 A3017 RMK AO1 SLP217 T02170117
Observed Flight Rules
Aug-20 @ 19:56 UTC (35 minutes ago)
Temperatures Readings
Current 22°C / 72°F
Dewpoint 12°C / 54°F
Humidity 53%
Altimeter 30.17" Hg
Pressure 1021.7 hPa
Elevation 427
METAR KGNR 201956Z AUTO 00000KT 22/12 A3017 RMK AO1 SLP217 T02170117
Observed Flight Rules
Aug-20 @ 19:56 UTC
(35 minutes ago)
Temperature Dewpoint
22°C / 72°F 12°C / 54°F
Humidity Altimeter Pressure
53% 30.17" Hg 1021.7 hPa